Time;durP1;ratioP1;P1;durP2;ratioP2;P2;SDS_P1;SDS_P2;PMS_P1;PMS_P2;Temp;Humidity;BMP_temperature;BMP_pressure;BME280_temperature;BME280_humidity;BME280_pressure;Samples;Min_cycle;Max_cycle;Signal;HPM_P1;HPM_P2
2021/12/24 00:01:22;;;;;;;13.57;9.82;;;7.10;80.50;;;6.45;66.34;93846.94;5035266;28;22109;-85
2021/12/24 00:03:50;;;;;;;13.52;9.95;;;7.20;80.60;;;6.47;66.24;93856.19;5035938;28;20640;-86
2021/12/24 00:06:17;;;;;;;16.10;10.57;;;7.20;80.50;;;6.50;65.95;93863.59;5035320;28;20317;-85
2021/12/24 00:08:46;;;;;;;13.65;9.40;;;7.30;80.60;;;6.57;66.13;93858.44;5020452;28;20254;-85
2021/12/24 00:11:15;;;;;;;17.08;10.52;;;7.30;80.50;;;6.59;66.00;93866.03;5020573;28;20223;-86
2021/12/24 00:13:46;;;;;;;14.98;10.00;;;7.40;80.50;;;6.62;66.06;93853.44;5020515;28;20627;-86
2021/12/24 00:38:05;;;;;;;13.77;9.30;;;7.60;80.00;;;6.81;65.45;93851.94;5035754;28;20203;-85
2021/12/24 00:40:43;;;;;;;13.80;9.75;;;7.60;79.90;;;6.86;65.15;93848.72;5016128;28;20230;-86
2021/12/24 00:43:13;;;;;;;14.30;9.65;;;7.60;79.90;;;6.85;65.43;93854.94;5031350;28;20309;-85
2021/12/24 00:45:44;;;;;;;14.15;9.80;;;7.70;79.90;;;6.87;65.60;93850.31;5031333;28;20217;-85
2021/12/24 00:48:16;;;;;;;13.02;9.57;;;7.70;79.90;;;6.89;65.18;93851.72;5016710;28;20283;-85
2021/12/24 00:56:10;;;;;;;15.23;9.85;;;7.70;79.80;;;6.92;65.05;93842.75;5038078;28;20281;-85
2021/12/24 00:58:39;;;;;;;11.38;8.43;;;7.70;79.80;;;6.95;64.98;93836.34;5014893;28;20647;-85
2021/12/24 01:01:09;;;;;;;11.70;8.95;;;7.70;79.90;;;6.95;65.02;93826.69;5035722;28;20243;-86
2021/12/24 01:03:37;;;;;;;15.73;9.75;;;7.80;79.80;;;6.96;65.07;93832.75;5018696;28;20216;-84
2021/12/24 01:06:04;;;;;;;12.88;9.23;;;7.70;79.70;;;6.91;65.01;93825.50;5035107;28;20212;-85
2021/12/24 01:08:33;;;;;;;13.73;9.65;;;7.80;79.70;;;6.93;65.13;93833.91;5035071;28;20211;-85
2021/12/24 01:11:09;;;;;;;14.63;9.38;;;7.70;79.60;;;6.94;65.03;93837.34;5050501;28;20227;-86
2021/12/24 01:13:36;;;;;;;11.65;8.77;;;7.80;79.60;;;6.97;65.18;93839.53;5050678;28;20590;-85
2021/12/24 01:19:07;;;;;;;10.88;8.13;;;7.80;79.70;;;7.05;64.93;93826.31;5040756;28;20262;-84
2021/12/24 01:24:20;;;;;;;13.25;8.57;;;7.80;79.70;;;7.07;65.07;93823.50;5051501;28;20604;-86
2021/12/24 01:42:54;;;;;;;14.35;8.85;;;7.90;79.50;;;7.09;65.03;93790.22;5051030;28;20307;-85
2021/12/24 01:45:29;;;;;;;11.95;8.73;;;7.90;79.50;;;7.09;65.11;93774.59;5018723;28;20744;-85
2021/12/24 01:48:04;;;;;;;12.52;8.27;;;7.90;79.60;;;7.13;65.11;93763.56;5051270;28;20222;-85
2021/12/24 01:50:34;;;;;;;12.88;7.95;;;7.90;79.70;;;7.14;65.30;93772.19;5032593;28;20222;-85
2021/12/24 01:53:05;;;;;;;12.57;8.48;;;7.90;79.70;;;7.16;65.25;93762.38;5067378;28;20228;-84
2021/12/24 01:55:35;;;;;;;13.82;8.45;;;8.00;79.80;;;7.19;65.39;93749.72;5051101;28;20220;-85
2021/12/24 01:58:03;;;;;;;12.05;7.90;;;8.00;80.60;;;7.15;65.25;93745.94;5032139;28;20200;-85
2021/12/24 02:00:38;;;;;;;10.40;7.95;;;8.00;79.80;;;7.25;65.39;93744.72;5041897;28;20212;-85
2021/12/24 02:03:08;;;;;;;9.48;7.68;;;8.00;79.90;;;7.27;65.57;93732.28;5065071;28;20285;-86
2021/12/24 02:05:37;;;;;;;12.55;8.05;;;8.00;80.00;;;7.32;65.43;93728.09;5033859;28;20223;-85
2021/12/24 02:08:05;;;;;;;9.63;7.47;;;8.10;80.20;;;7.33;65.56;93710.63;5017567;28;20253;-85
2021/12/24 02:10:32;;;;;;;10.07;7.10;;;8.10;80.20;;;7.40;65.48;93710.59;5033553;28;20208;-86
2021/12/24 02:13:00;;;;;;;11.55;7.63;;;8.20;80.30;;;7.42;65.54;93698.16;5035007;28;20211;-87
2021/12/24 02:15:59;;;;;;;10.73;7.03;;;8.20;80.20;;;7.48;65.94;93700.78;5035923;28;20299;-86
2021/12/24 02:28:14;;;;;;;10.90;7.15;;;8.20;80.30;;;7.52;65.55;93686.31;5052536;28;20222;-86
2021/12/24 02:29:41;;;;;;;7.25;5.85;;;8.40;80.50;;;7.70;65.98;93692.69;5051509;28;20246;-86
2021/12/24 02:32:08;;;;;;;8.02;6.40;;;8.40;80.40;;;7.74;65.87;93687.88;5036879;28;20188;-87
2021/12/24 02:34:36;;;;;;;9.45;6.18;;;8.50;80.40;;;7.83;65.70;93697.09;5036937;28;20216;-86
2021/12/24 02:37:04;;;;;;;8.18;5.95;;;8.50;80.50;;;7.88;65.72;93696.50;5053403;28;20200;-86
2021/12/24 02:39:31;;;;;;;8.90;5.88;;;8.60;80.60;;;7.95;65.60;93711.13;5020316;28;20224;-87
2021/12/24 02:42:15;;;;;;;9.15;6.45;;;8.50;80.50;;;7.96;65.39;93698.88;5044176;28;20284;-86
2021/12/24 02:44:44;;;;;;;7.88;6.13;;;8.60;80.40;;;8.06;65.34;93699.25;5038887;28;20234;-87
2021/12/24 02:55:15;;;;;;;9.80;6.28;;;8.80;80.00;;;8.17;64.85;93669.88;5057750;28;20216;-86
2021/12/24 02:57:44;;;;;;;7.32;5.88;;;8.90;80.00;;;8.11;64.83;93668.09;5022359;28;20717;-86
2021/12/24 03:00:19;;;;;;;8.23;6.60;;;8.90;80.00;;;8.20;64.72;93673.09;5054422;28;20204;-84
2021/12/24 03:02:49;;;;;;;8.60;6.20;;;8.90;79.90;;;8.21;64.72;93666.84;5038902;28;20199;-86
2021/12/24 03:05:19;;;;;;;9.32;6.32;;;8.90;79.90;;;8.18;64.77;93658.41;5021868;28;20220;-87
2021/12/24 03:07:47;;;;;;;8.63;5.97;;;8.90;79.80;;;8.23;64.43;93672.69;5021934;28;20204;-86
2021/12/24 03:10:18;;;;;;;8.70;6.40;;;8.90;79.70;;;8.25;64.83;93684.53;5018344;28;20224;-86
2021/12/24 03:12:51;;;;;;;7.75;5.25;;;8.90;80.50;;;8.24;64.46;93680.28;5035526;28;20686;-87
2021/12/24 03:15:22;;;;;;;8.52;6.07;;;9.00;79.70;;;8.25;64.47;93683.69;5018451;28;20286;-86
2021/12/24 03:17:54;;;;;;;8.30;5.90;;;9.00;79.70;;;8.21;64.45;93662.41;5002578;28;20207;-87
2021/12/24 03:20:22;;;;;;;8.00;6.20;;;9.00;79.60;;;8.24;64.53;93669.03;5047765;28;20773;-87
2021/12/24 03:25:27;;;;;;;9.85;7.03;;;9.10;79.70;;;8.28;64.61;93671.03;5051381;28;20235;-86
2021/12/24 03:27:54;;;;;;;10.93;7.50;;;9.10;79.80;;;8.31;64.67;93668.00;5037979;28;20189;-86
2021/12/24 03:30:23;;;;;;;11.35;6.55;;;9.10;79.80;;;8.26;64.51;93657.38;5038152;28;20231;-86
2021/12/24 03:32:50;;;;;;;9.18;6.95;;;9.00;79.70;;;8.39;64.46;93655.72;5069842;28;20241;-86
2021/12/24 03:35:18;;;;;;;10.43;7.32;;;9.10;79.70;;;8.41;64.41;93643.22;5053725;28;20238;-86
2021/12/24 03:37:45;;;;;;;11.35;7.38;;;9.10;79.70;;;8.43;64.31;93636.00;5021130;28;20188;-86
2021/12/24 03:40:12;;;;;;;7.13;6.03;;;9.10;79.60;;;8.43;63.92;93649.06;5037398;28;20216;-86
2021/12/24 03:42:42;;;;;;;10.63;7.47;;;9.20;79.60;;;8.46;63.98;93643.41;5037779;28;20223;-86
2021/12/24 03:45:25;;;;;;;10.93;6.47;;;9.20;79.50;;;8.47;64.12;93634.56;5037919;28;20322;-86
2021/12/24 03:47:58;;;;;;;9.40;7.10;;;9.20;79.50;;;8.51;64.02;93650.63;5039835;28;20199;-86
2021/12/24 03:50:40;;;;;;;11.60;7.20;;;9.20;79.40;;;8.53;63.93;93646.00;5037539;28;20677;-86
2021/12/24 03:54:55;;;;;;;10.75;7.07;;;9.30;79.40;;;8.53;64.03;93644.19;5039707;28;20200;-86
2021/12/24 03:55:55;;;;;;;8.48;6.50;;;9.20;79.30;;;8.51;63.99;93659.28;5039949;28;20212;-87
2021/12/24 03:58:22;;;;;;;9.82;7.50;;;9.30;79.30;;;8.49;63.74;93638.59;5037457;28;20204;-86
2021/12/24 04:01:09;;;;;;;9.02;7.20;;;9.30;79.30;;;8.47;63.87;93638.00;5040349;28;20289;-86
2021/12/24 04:03:55;;;;;;;8.63;6.80;;;9.30;79.20;;;8.53;64.09;93638.16;5039905;28;20215;-86
2021/12/24 04:06:41;;;;;;;9.77;6.95;;;9.30;79.20;;;8.51;63.91;93653.25;5039922;28;20548;-86
2021/12/24 04:09:49;;;;;;;9.50;7.38;;;9.30;79.20;;;8.46;64.30;93654.69;5040723;28;20273;-85
2021/12/24 04:12:35;;;;;;;9.52;6.60;;;9.30;79.20;;;8.49;64.07;93656.09;5040997;28;20215;-85
2021/12/24 04:15:03;;;;;;;12.70;7.57;;;9.30;79.20;;;8.47;63.81;93669.38;5036807;28;20568;-86
2021/12/24 04:17:32;;;;;;;10.43;6.80;;;9.30;79.20;;;8.44;63.76;93641.00;5053300;28;20296;-86
2021/12/24 04:25:31;;;;;;;9.63;6.70;;;9.30;79.10;;;8.52;63.92;93660.09;5039179;28;20270;-86
2021/12/24 04:27:59;;;;;;;8.95;7.00;;;9.30;79.00;;;8.51;63.50;93661.09;5053855;28;20210;-86
2021/12/24 04:30:35;;;;;;;9.20;6.78;;;9.40;79.00;;;8.56;63.32;93661.28;5036717;28;20692;-85
2021/12/24 04:33:10;;;;;;;7.45;6.07;;;9.30;78.90;;;8.57;63.50;93644.56;5021838;28;20649;-86
2021/12/24 04:35:43;;;;;;;9.32;6.63;;;9.30;79.00;;;8.60;63.28;93652.00;5021190;28;20223;-86
2021/12/24 04:52:06;;;;;;;7.85;5.47;;;9.10;79.10;;;8.12;65.02;93648.78;5050754;28;20211;-85
2021/12/24 05:03:00;;;;;;;7.85;5.60;;;8.90;79.50;;;7.98;65.62;93652.47;5035312;28;20203;-84
2021/12/24 05:05:49;;;;;;;7.85;5.22;;;8.90;79.80;;;7.91;65.97;93670.78;5033588;28;20231;-84
2021/12/24 05:08:26;;;;;;;7.47;5.25;;;8.90;79.80;;;7.90;66.20;93661.34;5033788;28;20222;-85
2021/12/24 05:10:53;;;;;;;7.00;5.18;;;8.80;79.90;;;7.92;66.00;93659.34;5018205;28;20223;-84
2021/12/24 05:13:24;;;;;;;6.13;4.97;;;8.80;80.00;;;7.91;66.22;93668.16;5018179;28;20215;-83
2021/12/24 05:16:16;;;;;;;6.55;4.85;;;8.80;80.20;;;7.91;65.88;93667.34;5051426;28;20239;-83
2021/12/24 05:22:03;;;;;;;6.55;5.13;;;8.70;80.20;;;7.88;66.31;93636.44;5032357;28;20278;-85
2021/12/24 05:24:33;;;;;;;5.68;4.95;;;8.70;80.20;;;7.82;66.26;93619.78;5016132;28;20247;-84
2021/12/24 05:27:03;;;;;;;7.63;5.72;;;8.70;80.30;;;7.88;66.89;93649.50;5016221;28;20251;-84
2021/12/24 05:29:32;;;;;;;5.78;4.95;;;8.70;80.40;;;7.87;66.65;93630.41;5032911;28;20700;-82
2021/12/24 05:32:00;;;;;;;6.13;4.47;;;8.70;80.50;;;7.88;66.63;93634.63;5034895;28;20214;-84
2021/12/24 05:34:27;;;;;;;7.18;5.00;;;8.70;80.50;;;7.85;66.53;93617.56;5035059;28;20311;-82
2021/12/24 05:36:55;;;;;;;5.82;4.47;;;8.70;80.50;;;7.84;66.99;93623.78;5035323;28;20192;-84
2021/12/24 05:39:23;;;;;;;5.40;4.28;;;8.80;80.70;;;7.86;66.88;93639.28;5018833;28;20219;-83
2021/12/24 05:41:52;;;;;;;6.05;4.68;;;8.70;80.70;;;7.86;66.53;93623.63;5051615;28;20196;-83
2021/12/24 05:44:21;;;;;;;4.60;3.83;;;8.70;80.70;;;7.87;66.89;93621.78;5019235;28;20235;-84
2021/12/24 05:47:00;;;;;;;5.05;3.78;;;8.70;80.90;;;7.89;67.04;93619.78;5036904;28;20207;-82
2021/12/24 05:49:41;;;;;;;4.70;3.70;;;8.70;81.00;;;7.88;66.92;93612.97;5021319;28;20681;-83
2021/12/24 05:52:28;;;;;;;6.03;3.70;;;8.70;81.80;;;7.90;67.04;93627.41;5038184;28;20203;-84
2021/12/24 05:55:04;;;;;;;5.80;3.92;;;8.70;81.10;;;7.92;67.03;93614.13;5020368;28;20227;-84
2021/12/24 05:57:32;;;;;;;5.20;3.67;;;8.70;81.00;;;7.92;66.87;93617.56;5034830;28;20204;-83
2021/12/24 06:00:04;;;;;;;5.22;4.05;;;8.70;81.00;;;7.90;66.84;93616.13;5034787;28;20227;-84
2021/12/24 06:02:39;;;;;;;4.90;3.33;;;8.70;81.00;;;7.97;66.82;93609.91;5039379;28;20245;-84
2021/12/24 06:05:08;;;;;;;4.05;3.22;;;8.70;81.00;;;8.00;66.66;93606.06;5038758;28;20227;-84
2021/12/24 06:07:35;;;;;;;5.00;3.72;;;8.70;81.00;;;8.02;66.72;93601.44;5038903;28;20192;-83
2021/12/24 06:10:04;;;;;;;4.57;3.42;;;8.70;81.00;;;8.04;66.65;93602.03;5022451;28;20238;-84
2021/12/24 06:12:31;;;;;;;4.20;3.55;;;8.80;80.90;;;8.07;66.48;93606.03;5038474;28;20635;-85
2021/12/24 06:15:04;;;;;;;6.03;4.93;;;8.80;81.00;;;8.10;66.48;93603.78;5055733;28;20220;-83
2021/12/24 06:17:31;;;;;;;6.43;5.25;;;8.80;81.00;;;8.14;66.31;93605.00;5039951;28;20282;-84
2021/12/24 06:19:58;;;;;;;3.83;3.28;;;8.80;81.00;;;8.21;66.01;93591.91;5054996;28;20754;-83
2021/12/24 06:22:25;;;;;;;3.75;3.22;;;8.80;81.80;;;8.18;66.04;93587.91;5039139;28;20649;-85
2021/12/24 06:24:53;;;;;;;5.30;3.40;;;8.80;81.00;;;8.29;66.08;93617.00;5038715;28;20311;-83
2021/12/24 06:27:20;;;;;;;3.63;3.10;;;8.90;81.00;;;8.32;66.12;93599.09;5022549;28;20216;-83
2021/12/24 06:29:47;;;;;;;6.30;3.53;;;8.90;81.80;;;8.34;65.66;93581.38;5022051;28;20525;-84
2021/12/24 06:32:15;;;;;;;4.03;3.15;;;9.00;81.00;;;8.44;65.53;93609.63;5038125;28;20743;-83
2021/12/24 06:34:43;;;;;;;4.25;3.45;;;9.00;81.00;;;8.51;65.81;93617.50;5022011;28;20207;-84
2021/12/24 06:37:10;;;;;;;4.53;3.85;;;9.10;81.00;;;8.58;65.36;93633.09;5055131;28;20203;-84
2021/12/24 06:39:37;;;;;;;4.35;3.38;;;9.10;80.80;;;8.61;65.25;93624.84;5037282;28;20224;-84
2021/12/24 06:42:05;;;;;;;5.70;3.80;;;9.20;80.70;;;8.65;65.16;93639.09;5021935;28;20200;-84
2021/12/24 06:44:33;;;;;;;5.15;3.50;;;9.20;80.60;;;8.70;64.79;93630.63;5021915;28;20236;-83
2021/12/24 06:47:00;;;;;;;4.20;3.58;;;9.30;80.60;;;8.71;65.04;93619.16;5022211;28;20649;-85
2021/12/24 06:49:28;;;;;;;3.67;3.15;;;9.30;80.40;;;8.76;64.87;93630.59;5037921;28;20246;-85
2021/12/24 06:51:55;;;;;;;3.65;3.25;;;9.40;80.40;;;8.79;64.76;93634.59;5038514;28;20193;-84
2021/12/24 06:54:23;;;;;;;4.45;3.10;;;9.40;80.10;;;8.78;64.49;93641.63;5038579;28;20241;-84
2021/12/24 06:56:52;;;;;;;3.80;3.00;;;9.40;80.00;;;8.82;64.48;93647.22;5022759;28;20645;-85
2021/12/24 06:59:21;;;;;;;4.32;3.20;;;9.50;80.00;;;8.81;64.22;93643.00;5054811;28;20243;-85
2021/12/24 07:01:50;;;;;;;6.43;3.65;;;9.50;79.80;;;8.81;63.95;93649.06;5038077;28;20206;-86
2021/12/24 07:04:17;;;;;;;3.38;3.08;;;9.50;79.70;;;8.85;63.93;93657.28;5037822;28;20223;-85
2021/12/24 07:06:45;;;;;;;4.25;3.05;;;9.50;79.70;;;8.85;63.79;93652.03;5037157;28;20231;-85
2021/12/24 07:09:15;;;;;;;4.78;3.30;;;9.50;79.70;;;8.92;63.69;93655.41;5018488;28;20197;-83
2021/12/24 07:11:43;;;;;;;4.10;3.30;;;9.50;79.60;;;8.93;63.37;93651.75;5053160;28;20204;-83
2021/12/24 07:14:10;;;;;;;5.28;3.38;;;9.50;79.40;;;8.93;63.26;93656.22;5036717;28;20196;-85
2021/12/24 07:16:38;;;;;;;3.40;3.10;;;9.60;79.40;;;8.99;63.12;93663.19;5022081;28;20601;-83
2021/12/24 07:19:06;;;;;;;4.03;3.08;;;9.60;79.40;;;9.06;63.42;93656.09;5037832;28;20191;-84
2021/12/24 07:21:35;;;;;;;3.25;2.80;;;9.60;79.40;;;9.05;63.69;93646.66;5037691;28;20275;-82
2021/12/24 07:24:06;;;;;;;4.63;3.17;;;9.70;79.30;;;9.06;63.24;93653.50;5021220;28;20207;-83
2021/12/24 07:26:35;;;;;;;2.97;2.60;;;9.70;79.20;;;9.10;63.11;93669.56;5037925;28;20218;-83
2021/12/24 07:29:02;;;;;;;3.38;2.67;;;9.70;79.10;;;9.09;63.45;93673.19;5037413;28;20221;-83
2021/12/24 07:31:29;;;;;;;4.35;2.72;;;9.80;79.30;;;9.06;63.40;93642.25;5037633;28;20657;-84
2021/12/24 07:33:57;;;;;;;3.05;2.33;;;9.70;79.10;;;9.11;63.47;93652.84;5037772;28;20246;-82
2021/12/24 07:36:24;;;;;;;3.10;2.80;;;9.70;79.10;;;9.12;63.25;93647.41;5036600;28;20196;-80
2021/12/24 07:38:51;;;;;;;3.08;2.50;;;9.80;79.10;;;9.20;63.26;93637.69;5049199;28;20192;-82
2021/12/24 07:41:19;;;;;;;3.55;2.30;;;9.80;79.20;;;9.22;63.04;93652.16;5064861;28;20246;-80
2021/12/24 07:43:47;;;;;;;3.88;2.33;;;9.80;79.10;;;9.27;63.31;93638.44;5067952;28;20245;-82
2021/12/24 07:46:14;;;;;;;4.38;2.47;;;9.90;79.20;;;9.28;62.74;93640.81;5051630;28;20654;-81
2021/12/24 07:48:49;;;;;;;3.10;2.35;;;9.90;78.90;;;9.26;62.60;93615.91;5052066;28;20680;-81
2021/12/24 07:54:04;;;;;;;2.65;2.42;;;9.90;78.80;;;9.34;62.62;93626.09;5038123;28;20294;-81
2021/12/24 07:56:32;;;;;;;2.90;2.55;;;9.90;78.60;;;9.34;62.31;93635.75;5051240;28;20283;-82
2021/12/24 07:59:01;;;;;;;2.90;2.60;;;10.00;77.40;;;9.37;62.29;93617.78;5034559;28;20666;-81
2021/12/24 08:01:29;;;;;;;2.78;2.50;;;10.00;77.40;;;9.38;62.13;93640.34;5051077;28;20630;-81
2021/12/24 08:03:57;;;;;;;3.78;2.55;;;10.00;77.30;;;9.40;62.13;93624.44;5035657;28;20690;-81
2021/12/24 08:06:26;;;;;;;4.32;2.30;;;10.00;77.20;;;9.43;61.88;93619.53;5015073;28;20247;-81
2021/12/24 08:08:53;;;;;;;3.72;2.40;;;10.00;77.20;;;9.45;61.59;93629.81;5015614;28;20196;-82
2021/12/24 08:11:20;;;;;;;3.58;2.33;;;10.10;77.10;;;9.51;62.23;93635.97;5016054;28;20196;-81
2021/12/24 08:13:47;;;;;;;2.78;2.22;;;10.10;77.00;;;9.51;61.61;93609.81;5016360;28;20708;-82
2021/12/24 08:16:15;;;;;;;2.20;2.00;;;10.10;77.10;;;9.55;61.72;93621.47;5014360;28;20216;-81
2021/12/24 08:18:44;;;;;;;3.55;2.30;;;10.10;77.00;;;9.58;61.49;93619.22;5034031;28;20203;-82
2021/12/24 08:21:12;;;;;;;2.90;2.20;;;10.10;76.80;;;9.61;61.52;93623.22;5034433;28;20222;-81
2021/12/24 08:23:39;;;;;;;2.55;1.90;;;10.20;77.00;;;9.64;61.29;93614.91;5034813;28;20192;-82
2021/12/24 08:26:07;;;;;;;3.55;2.15;;;10.20;76.90;;;9.67;61.26;93629.41;5051596;28;20280;-82
2021/12/24 08:28:34;;;;;;;4.07;2.50;;;10.20;76.80;;;9.66;60.98;93648.75;5051359;28;20203;-82
2021/12/24 08:31:01;;;;;;;3.00;2.40;;;10.20;76.70;;;9.69;61.14;93612.47;5035389;28;20273;-82
2021/12/24 08:33:28;;;;;;;2.60;2.10;;;10.30;76.80;;;9.76;61.41;93615.00;5035341;28;20203;-83
2021/12/24 08:35:55;;;;;;;2.20;2.00;;;10.30;76.80;;;9.76;61.25;93610.56;5019249;28;20225;-83
2021/12/24 08:38:22;;;;;;;2.38;2.17;;;10.30;76.60;;;9.77;61.17;93616.59;5035534;28;20269;-82
2021/12/24 08:40:50;;;;;;;2.58;1.90;;;10.40;76.60;;;9.81;60.85;93596.00;5049594;28;20223;-82
2021/12/24 08:43:17;;;;;;;3.28;2.30;;;10.40;76.40;;;9.84;60.81;93638.28;5034023;28;20291;-83
2021/12/24 08:45:45;;;;;;;2.33;2.00;;;10.40;77.40;;;9.81;61.05;93609.09;5051842;28;20223;-83
2021/12/24 08:48:13;;;;;;;2.88;2.00;;;10.40;76.60;;;9.88;60.84;93607.22;5018096;28;20295;-83
2021/12/24 08:50:41;;;;;;;2.65;2.30;;;10.50;76.50;;;9.89;60.94;93604.38;5034944;28;20306;-83
2021/12/24 08:53:10;;;;;;;2.70;2.20;;;10.40;76.40;;;9.90;60.63;93618.28;5053194;28;20208;-83
2021/12/24 08:55:38;;;;;;;2.60;2.08;;;10.50;76.30;;;9.91;60.66;93625.09;5036127;28;20215;-81
2021/12/24 08:58:06;;;;;;;2.03;1.80;;;10.50;76.30;;;9.94;60.85;93617.59;5036225;28;20210;-82
2021/12/24 09:00:35;;;;;;;2.55;2.15;;;10.50;76.40;;;9.97;60.44;93626.81;5084771;28;20230;-82
2021/12/24 09:03:03;;;;;;;2.15;1.95;;;10.50;76.20;;;10.00;60.65;93651.81;5034909;28;20288;-82
2021/12/24 09:05:31;;;;;;;2.55;2.08;;;10.60;76.30;;;10.01;60.47;93630.63;5018213;28;20233;-82
2021/12/24 09:07:59;;;;;;;3.00;1.95;;;10.60;76.30;;;10.02;60.36;93647.13;5050846;28;20337;-83
2021/12/24 09:10:27;;;;;;;2.42;2.20;;;10.60;76.20;;;10.05;60.56;93633.59;5065458;28;20250;-83
2021/12/24 09:12:54;;;;;;;2.80;2.40;;;10.60;76.20;;;10.07;60.26;93650.69;5035140;28;20261;-83
2021/12/24 09:15:27;;;;;;;2.33;2.10;;;10.60;76.10;;;10.08;60.52;93626.09;5035113;28;20681;-82
2021/12/24 09:17:54;;;;;;;3.25;2.53;;;10.60;76.10;;;10.10;60.46;93631.91;5019093;28;20234;-82
2021/12/24 09:20:29;;;;;;;4.13;2.97;;;10.70;76.10;;;10.08;60.49;93654.94;5035138;28;20223;-83
2021/12/24 09:22:59;;;;;;;2.97;2.50;;;10.60;76.00;;;10.11;60.43;93677.25;5019486;28;20206;-82
2021/12/24 09:25:29;;;;;;;2.53;2.22;;;10.70;75.90;;;10.12;60.39;93644.00;5035389;28;20229;-82
2021/12/24 09:27:57;;;;;;;3.28;2.60;;;10.70;76.00;;;10.15;60.05;93659.28;5018622;28;20204;-83
2021/12/24 09:30:25;;;;;;;2.97;2.67;;;10.70;75.80;;;10.09;60.20;93648.69;5035098;28;20234;-82
2021/12/24 09:32:53;;;;;;;3.40;2.53;;;10.70;75.80;;;10.14;60.29;93678.66;5050404;28;20227;-82
2021/12/24 09:35:22;;;;;;;3.17;2.70;;;10.70;75.90;;;10.14;60.13;93640.13;5034881;28;20269;-83
2021/12/24 09:37:49;;;;;;;3.10;2.50;;;10.70;75.70;;;10.13;60.49;93630.69;5034280;28;20227;-83
2021/12/24 09:40:18;;;;;;;2.63;2.42;;;10.70;76.00;;;10.18;60.41;93630.81;5068065;28;20219;-82
2021/12/24 09:42:48;;;;;;;3.38;2.80;;;10.70;76.00;;;10.18;60.13;93630.81;5050851;28;20191;-85
2021/12/24 09:45:18;;;;;;;3.10;2.67;;;10.70;75.90;;;10.22;60.34;93623.31;5035859;28;20302;-87
2021/12/24 09:47:46;;;;;;;3.92;3.42;;;10.70;75.90;;;10.16;59.75;93621.59;5019581;28;20302;-85
2021/12/24 09:50:21;;;;;;;2.83;2.60;;;10.70;75.70;;;10.15;60.24;93612.13;5035460;28;20231;-90
2021/12/24 09:52:50;;;;;;;4.32;2.78;;;10.80;75.80;;;10.17;60.33;93616.13;5051832;28;20219;-87
2021/12/24 09:55:26;;;;;;;2.70;2.50;;;10.70;75.70;;;10.15;60.78;93617.38;5035020;28;20216;-85
2021/12/24 09:57:54;;;;;;;4.25;3.08;;;10.70;75.70;;;10.09;60.30;93613.78;5052520;28;20195;-87
2021/12/24 10:00:24;;;;;;;4.32;2.80;;;10.70;75.60;;;9.96;60.18;93601.69;5034808;28;20274;-87
2021/12/24 10:02:56;;;;;;;3.10;2.58;;;10.70;75.40;;;9.91;60.35;93630.31;5015894;28;20200;-87
2021/12/24 10:05:39;;;;;;;3.55;3.13;;;10.60;75.40;;;9.83;60.55;93601.84;5015781;28;20682;-86
2021/12/24 10:08:21;;;;;;;4.30;3.30;;;10.60;75.40;;;9.71;60.91;93592.06;5015846;28;20204;-88
2021/12/24 10:11:00;;;;;;;4.63;3.15;;;10.60;75.60;;;9.72;61.19;93603.38;5018600;28;20266;-86
2021/12/24 10:13:36;;;;;;;3.83;2.80;;;10.50;75.70;;;9.63;61.28;93591.56;5019290;28;20343;-89
2021/12/24 10:16:18;;;;;;;4.45;2.80;;;10.50;75.90;;;9.76;61.54;93599.28;5019313;28;20248;-88
2021/12/24 10:18:51;;;;;;;3.90;3.35;;;10.40;76.10;;;9.78;61.19;93641.75;5019261;28;20190;-87
2021/12/24 10:21:28;;;;;;;4.00;3.55;;;10.40;76.10;;;9.83;61.19;93596.59;5067043;28;20222;-86
2021/12/24 10:24:03;;;;;;;4.00;3.45;;;10.40;76.20;;;9.78;61.34;93573.69;5035010;28;20711;-86
2021/12/24 10:26:32;;;;;;;3.42;3.03;;;10.40;76.30;;;9.84;61.15;93567.56;5035334;28;20231;-87
2021/12/24 10:29:07;;;;;;;6.38;4.72;;;10.40;76.30;;;9.85;61.15;93603.22;5018401;28;20200;-89
2021/12/24 10:31:43;;;;;;;4.03;3.15;;;10.40;76.20;;;9.91;61.16;93572.72;5051372;28;20695;-84
2021/12/24 10:34:24;;;;;;;4.03;2.90;;;10.40;76.40;;;9.96;61.16;93566.81;5018911;28;20544;-85
2021/12/24 10:37:24;;;;;;;4.63;3.22;;;10.40;76.30;;;9.97;60.98;93598.00;5018731;28;20290;-86
2021/12/24 10:40:02;;;;;;;4.72;3.10;;;10.50;76.30;;;9.97;60.99;93563.19;5066823;28;20266;-86
2021/12/24 10:42:35;;;;;;;3.72;3.05;;;10.50;76.10;;;10.01;61.03;93566.94;5034909;28;20195;-87
2021/12/24 10:45:17;;;;;;;4.40;3.75;;;10.50;76.20;;;10.07;60.75;93605.34;5051704;28;20227;-86
2021/12/24 10:47:46;;;;;;;3.90;3.45;;;10.60;76.10;;;10.09;60.57;93571.88;5068518;28;20214;-87
2021/12/24 10:53:18;;;;;;;4.00;3.60;;;10.60;76.20;;;10.21;60.67;93574.56;5038975;28;20568;-86
2021/12/24 10:55:53;;;;;;;4.32;3.13;;;10.60;75.90;;;10.24;60.16;93567.06;5040351;28;20212;-86
2021/12/24 10:58:26;;;;;;;4.18;3.53;;;10.70;75.90;;;10.24;60.27;93545.28;5037457;28;20199;-86
2021/12/24 11:00:58;;;;;;;4.18;3.55;;;10.80;75.90;;;10.27;59.85;93557.16;5054392;28;20223;-88
2021/12/24 11:03:31;;;;;;;5.32;3.40;;;10.80;75.80;;;10.31;59.97;93555.69;5053542;28;20573;-88
2021/12/24 11:06:09;;;;;;;4.78;3.35;;;10.80;75.80;;;10.26;59.69;93545.84;5047340;28;20231;-84
2021/12/24 11:08:38;;;;;;;3.47;2.90;;;10.90;75.50;;;10.33;59.60;93562.28;5027029;28;20610;-87
2021/12/24 11:11:10;;;;;;;4.18;3.20;;;10.90;75.40;;;10.33;59.87;93580.63;5033382;28;20306;-86
2021/12/24 11:13:41;;;;;;;3.83;2.90;;;10.90;75.20;;;10.33;59.86;93564.91;5033748;28;20250;-85
2021/12/24 11:16:20;;;;;;;3.95;3.33;;;10.80;75.20;;;10.31;59.92;93577.44;5029730;28;20743;-86
2021/12/24 11:19:01;;;;;;;4.22;3.28;;;10.90;75.30;;;10.30;59.85;93568.00;5037374;28;20565;-85
2021/12/24 11:21:33;;;;;;;4.13;3.03;;;10.90;75.20;;;10.29;59.90;93566.38;5036115;28;20230;-86
2021/12/24 11:24:01;;;;;;;4.22;3.45;;;10.90;75.20;;;10.27;59.33;93571.03;5036712;28;20202;-86
2021/12/24 11:26:33;;;;;;;5.60;3.83;;;11.00;75.30;;;10.22;59.87;93573.53;5036852;28;20304;-86
2021/12/24 11:29:00;;;;;;;3.90;3.47;;;10.90;75.20;;;10.22;59.68;93557.81;5021378;28;20192;-85
2021/12/24 11:31:32;;;;;;;4.00;3.42;;;10.90;75.20;;;10.13;59.77;93546.03;5036103;28;20703;-86
2021/12/24 11:34:01;;;;;;;5.38;3.58;;;10.90;75.20;;;10.07;59.89;93543.28;5019454;28;20592;-85
2021/12/24 11:36:30;;;;;;;6.03;3.65;;;10.80;75.10;;;10.07;60.07;93555.56;5053893;28;20796;-85
2021/12/24 11:39:06;;;;;;;4.72;3.75;;;10.80;75.10;;;10.02;60.30;93579.03;5037283;28;20203;-86
2021/12/24 11:41:36;;;;;;;6.00;3.55;;;10.80;75.10;;;10.00;60.21;93560.13;5035780;28;20197;-85
2021/12/24 11:44:07;;;;;;;6.78;3.63;;;10.80;75.30;;;9.88;60.65;93555.63;5028909;28;20200;-86
2021/12/24 11:46:37;;;;;;;4.35;3.60;;;10.70;75.00;;;9.91;60.51;93557.81;5042106;28;20263;-86
2021/12/24 11:49:06;;;;;;;5.10;3.90;;;10.70;75.00;;;9.89;60.34;93549.38;5052424;28;20223;-87
2021/12/24 11:51:40;;;;;;;5.22;4.30;;;10.60;75.00;;;9.85;60.51;93557.88;5036121;28;20573;-87
2021/12/24 11:54:11;;;;;;;7.05;4.95;;;10.60;75.00;;;9.78;61.17;93540.44;5037027;28;20177;-85
2021/12/24 11:56:48;;;;;;;4.55;3.83;;;10.60;75.40;;;9.79;60.60;93533.41;5036921;28;20204;-88
2021/12/24 11:59:15;;;;;;;5.30;3.53;;;10.60;75.90;;;9.82;60.56;93556.50;5036453;28;20273;-85
2021/12/24 12:01:45;;;;;;;5.18;3.60;;;10.50;75.50;;;9.89;60.31;93536.28;5037457;28;20212;-87
2021/12/24 12:04:19;;;;;;;5.25;3.70;;;10.60;75.60;;;9.88;60.29;93547.75;5037770;28;20204;-87
2021/12/24 12:06:46;;;;;;;5.70;3.83;;;10.60;75.40;;;9.91;60.00;93549.13;5036837;28;20295;-86
2021/12/24 12:09:14;;;;;;;5.00;3.67;;;10.60;75.40;;;9.91;60.37;93534.25;5020662;28;20608;-87
2021/12/24 12:11:45;;;;;;;4.65;3.47;;;10.60;75.40;;;9.84;60.29;93564.94;5037354;28;20588;-87
2021/12/24 12:14:15;;;;;;;6.88;3.63;;;10.60;75.30;;;9.85;60.18;93550.84;5036210;28;20189;-86
2021/12/24 12:16:57;;;;;;;4.00;3.60;;;10.60;75.10;;;9.83;60.22;93541.59;5051590;28;20739;-87
2021/12/24 12:19:33;;;;;;;4.22;3.00;;;10.50;75.00;;;9.83;60.15;93550.25;5018992;28;20266;-86
2021/12/24 12:25:12;;;;;;;4.15;3.42;;;10.50;75.10;;;9.81;60.38;93549.66;5037653;28;20223;-86
2021/12/24 12:27:42;;;;;;;5.07;3.05;;;10.50;75.20;;;9.85;59.72;93545.59;5035982;28;20227;-87
2021/12/24 12:30:36;;;;;;;5.28;3.83;;;10.50;75.00;;;9.88;60.14;93547.75;5033553;28;20265;-87
2021/12/24 12:33:30;;;;;;;3.95;3.20;;;10.50;75.30;;;9.90;59.67;93552.81;5034856;28;20196;-86